createdAt,value
2022-09-20T00:01:28.302Z,65.19
2022-09-20T00:03:58.742Z,65.29
2022-09-20T00:06:28.545Z,65.37
2022-09-20T00:08:57.804Z,65.31
2022-09-20T00:11:28.661Z,65.45
2022-09-20T00:13:58.599Z,65.45
2022-09-20T00:16:31.309Z,65.55
2022-09-20T00:19:00.905Z,66.20
2022-09-20T00:21:31.166Z,65.96
2022-09-20T00:23:59.580Z,65.57
2022-09-20T00:26:29.020Z,66.13
2022-09-20T00:28:59.017Z,66.19
2022-09-20T00:31:28.970Z,65.93
2022-09-20T00:34:15.131Z,66.18
2022-09-20T00:36:43.730Z,66.05
2022-09-20T00:39:14.184Z,66.66
2022-09-20T00:41:42.667Z,67.32
2022-09-20T00:44:53.588Z,67.33
2022-09-20T00:47:33.341Z,67.69
2022-09-20T00:50:08.871Z,67.83
2022-09-20T00:52:37.968Z,67.34
2022-09-20T00:55:09.884Z,66.86
2022-09-20T00:57:39.627Z,66.79
2022-09-20T01:00:11.587Z,66.87
2022-09-20T01:02:44.323Z,66.21
2022-09-20T01:05:15.699Z,66.04
2022-09-20T01:07:45.423Z,65.90
2022-09-20T01:10:13.576Z,65.54
2022-09-20T01:12:44.411Z,64.66
2022-09-20T01:15:14.449Z,64.79
2022-09-20T01:17:48.473Z,64.41
2022-09-20T01:20:22.589Z,64.14
2022-09-20T01:23:21.767Z,64.12
2022-09-20T01:26:15.229Z,64.61
2022-09-20T01:28:47.734Z,64.55
2022-09-20T01:31:21.616Z,64.99
2022-09-20T01:33:54.428Z,65.20
2022-09-20T01:36:27.033Z,65.39
2022-09-20T01:39:07.120Z,65.68
2022-09-20T01:41:38.607Z,65.30
2022-09-20T01:44:14.200Z,65.33
2022-09-20T01:46:44.335Z,65.43
2022-09-20T01:49:28.775Z,66.25
2022-09-20T01:52:28.864Z,65.96
2022-09-20T01:55:47.646Z,65.90
2022-09-20T01:58:48.104Z,66.60
2022-09-20T02:01:46.457Z,66.49
2022-09-20T02:04:44.413Z,66.53
2022-09-20T02:07:39.143Z,66.53
2022-09-20T02:10:35.652Z,66.48
2022-09-20T02:13:08.193Z,66.70
2022-09-20T02:16:06.126Z,66.50
2022-09-20T02:18:49.548Z,66.76
2022-09-20T02:21:30.852Z,66.06
2022-09-20T02:24:10.994Z,66.00
2022-09-20T02:26:48.446Z,65.73
2022-09-20T02:29:27.311Z,65.67
2022-09-20T02:32:13.436Z,65.30
2022-09-20T02:34:59.453Z,65.46
2022-09-20T02:37:51.499Z,66.06
2022-09-20T02:40:33.464Z,65.73
2022-09-20T02:43:10.205Z,65.75
2022-09-20T02:45:45.731Z,65.51
2022-09-20T02:48:17.853Z,65.56
2022-09-20T02:50:56.073Z,65.90
2022-09-20T02:53:36.573Z,65.56
2022-09-20T02:56:14.981Z,66.13
2022-09-20T02:58:54.761Z,66.20
2022-09-20T03:01:42.426Z,66.18
2022-09-20T03:04:25.101Z,66.07
2022-09-20T03:07:02.875Z,65.94
2022-09-20T03:09:36.282Z,66.03
2022-09-20T03:12:15.856Z,66.11
2022-09-20T03:14:51.631Z,66.82
2022-09-20T03:17:26.586Z,67.13
2022-09-20T03:20:08.107Z,67.44
2022-09-20T03:22:50.996Z,67.61
2022-09-20T03:25:43.762Z,67.88
2022-09-20T03:28:35.605Z,67.77
2022-09-20T03:31:17.065Z,67.86
2022-09-20T03:33:53.549Z,68.55
2022-09-20T03:36:40.833Z,68.66
2022-09-20T03:39:39.499Z,69.06
2022-09-20T03:42:16.593Z,69.18
2022-09-20T03:45:16.143Z,68.94
2022-09-20T03:48:16.950Z,69.29
2022-09-20T03:50:56.472Z,69.42
2022-09-20T03:53:42.499Z,69.60
2022-09-20T03:56:45.679Z,70.11
2022-09-20T03:59:33.366Z,70.49
2022-09-20T04:02:32.747Z,70.57
2022-09-20T04:05:05.153Z,69.69
2022-09-20T04:07:49.081Z,69.44
2022-09-20T04:10:37.800Z,69.58
2022-09-20T04:13:18.866Z,69.25
2022-09-20T04:16:07.043Z,69.27
2022-09-20T04:18:42.475Z,70.08
2022-09-20T04:21:23.839Z,69.48
2022-09-20T04:24:01.016Z,69.30
2022-09-20T04:26:31.555Z,69.09
2022-09-20T04:29:14.466Z,69.12
2022-09-20T04:31:54.103Z,69.68
2022-09-20T04:34:49.678Z,69.35
2022-09-20T04:37:26.348Z,70.92
2022-09-20T04:40:04.468Z,71.33
2022-09-20T04:43:25.546Z,71.24
2022-09-20T04:46:31.791Z,70.95
2022-09-20T04:49:40.699Z,71.42
2022-09-20T04:52:50.433Z,72.12
2022-09-20T04:55:53.748Z,71.11
2022-09-20T04:59:05.950Z,71.17
2022-09-20T05:02:06.937Z,71.25
2022-09-20T05:05:10.421Z,69.98
2022-09-20T05:08:14.352Z,69.52
2022-09-20T05:11:19.636Z,69.09
2022-09-20T05:14:07.692Z,68.55
2022-09-20T05:16:58.255Z,67.87
2022-09-20T05:19:34.428Z,67.81
2022-09-20T05:22:27.969Z,67.69
2022-09-20T05:25:10.298Z,67.43
2022-09-20T05:27:46.714Z,67.45
2022-09-20T05:30:24.313Z,66.28
2022-09-20T05:33:02.305Z,65.46
2022-09-20T05:35:38.301Z,65.27
2022-09-20T05:38:15.021Z,65.33
2022-09-20T05:41:04.721Z,64.75
2022-09-20T05:43:36.352Z,64.55
2022-09-20T05:46:17.826Z,63.88
2022-09-20T05:49:04.198Z,63.85
2022-09-20T05:51:44.012Z,63.94
2022-09-20T05:54:54.830Z,62.27
2022-09-20T05:57:45.685Z,59.67
2022-09-20T06:00:18.043Z,54.62
2022-09-20T06:02:54.662Z,57.31
2022-09-20T06:05:34.947Z,55.35
2022-09-20T06:08:17.790Z,51.43
2022-09-20T06:11:12.581Z,49.51
2022-09-20T06:14:01.189Z,48.20
2022-09-20T06:16:36.572Z,50.94
2022-09-20T06:19:17.339Z,48.66
2022-09-20T06:21:52.621Z,47.19
2022-09-20T06:24:38.289Z,45.09
2022-09-20T06:27:12.054Z,46.09
2022-09-20T06:29:46.018Z,46.07
2022-09-20T06:32:18.798Z,43.82
2022-09-20T06:34:49.876Z,43.34
2022-09-20T06:37:56.243Z,44.34
2022-09-20T06:40:53.011Z,42.12
2022-09-20T06:43:21.168Z,43.49
2022-09-20T06:45:49.323Z,44.47
2022-09-20T06:48:19.348Z,45.04
2022-09-20T06:50:48.870Z,45.72
2022-09-20T06:53:19.275Z,49.21
2022-09-20T06:55:48.330Z,50.55
2022-09-20T06:58:16.424Z,49.13
2022-09-20T07:00:44.754Z,50.62
2022-09-20T07:03:13.697Z,50.92
2022-09-20T07:05:41.933Z,51.14
2022-09-20T07:08:12.100Z,51.39
2022-09-20T07:10:40.493Z,51.04
2022-09-20T07:13:08.546Z,51.03
2022-09-20T07:15:37.117Z,50.36
2022-09-20T07:18:05.358Z,50.41
2022-09-20T07:20:34.105Z,51.72
2022-09-20T07:23:02.623Z,50.83
2022-09-20T07:25:32.785Z,51.58
2022-09-20T07:28:00.929Z,51.19
2022-09-20T07:30:29.359Z,50.26
2022-09-20T07:32:57.521Z,47.98
2022-09-20T07:35:25.741Z,48.11
2022-09-20T07:37:58.482Z,47.18
2022-09-20T07:40:27.480Z,44.86
2022-09-20T07:42:59.125Z,44.68
2022-09-20T07:45:27.441Z,44.02
2022-09-20T07:47:55.705Z,42.97
2022-09-20T07:50:23.862Z,42.85
2022-09-20T07:52:52.053Z,43.89
2022-09-20T07:55:20.300Z,43.21
2022-09-20T07:57:48.356Z,43.19
2022-09-20T08:00:18.694Z,43.63
2022-09-20T08:02:46.790Z,43.60
2022-09-20T08:05:15.207Z,43.68
2022-09-20T08:07:43.421Z,43.79
2022-09-20T08:10:12.146Z,43.93
2022-09-20T08:15:31.142Z,43.95
2022-09-20T08:17:59.300Z,43.77
2022-09-20T08:20:27.527Z,43.23
2022-09-20T08:23:19.319Z,43.71
2022-09-20T08:25:44.231Z,43.94
2022-09-20T08:28:12.357Z,42.37
2022-09-20T08:30:41.930Z,41.52
2022-09-20T08:33:11.602Z,40.52
2022-09-20T08:35:39.768Z,39.87
2022-09-20T08:40:59.381Z,37.92
2022-09-20T08:43:31.049Z,36.92
2022-09-20T08:46:06.908Z,36.34
2022-09-20T08:48:35.546Z,37.93
2022-09-20T08:51:06.053Z,38.31
2022-09-20T08:53:35.195Z,38.29
2022-09-20T08:56:04.836Z,37.21
2022-09-20T08:58:33.210Z,36.39
2022-09-20T09:01:03.032Z,36.36
2022-09-20T09:03:31.107Z,35.86
2022-09-20T09:05:59.494Z,37.56
2022-09-20T09:08:31.117Z,38.00
2022-09-20T09:11:08.571Z,38.74
2022-09-20T09:13:45.672Z,38.78
2022-09-20T09:16:23.174Z,38.89
2022-09-20T09:18:55.821Z,38.35
2022-09-20T09:21:27.020Z,38.39
2022-09-20T09:24:02.906Z,37.50
2022-09-20T09:27:25.859Z,37.94
2022-09-20T09:29:55.803Z,36.17
2022-09-20T09:32:29.134Z,36.14
2022-09-20T09:34:58.062Z,35.37
2022-09-20T09:37:29.143Z,34.18
2022-09-20T09:40:16.562Z,34.37
2022-09-20T09:42:53.122Z,35.63
2022-09-20T09:45:36.226Z,34.74
2022-09-20T09:48:21.969Z,32.64
2022-09-20T09:50:50.385Z,32.51
2022-09-20T09:53:23.244Z,32.63
2022-09-20T09:56:25.642Z,33.05
2022-09-20T09:59:15.220Z,32.91
2022-09-20T10:01:53.550Z,34.36
2022-09-20T10:04:31.679Z,35.22
2022-09-20T10:07:07.495Z,33.88
2022-09-20T10:09:53.380Z,33.81
2022-09-20T10:12:35.725Z,33.88
2022-09-20T10:15:21.386Z,33.70
2022-09-20T10:17:58.083Z,33.78
2022-09-20T10:21:00.540Z,33.18
2022-09-20T10:24:02.457Z,34.54
2022-09-20T10:26:49.061Z,33.87
2022-09-20T10:29:30.302Z,33.59
2022-09-20T10:32:11.372Z,33.92
2022-09-20T10:35:23.637Z,33.01
2022-09-20T10:38:12.687Z,32.64
2022-09-20T10:41:08.261Z,33.41
2022-09-20T10:43:54.586Z,33.76
2022-09-20T10:46:35.253Z,32.35
2022-09-20T10:49:28.273Z,32.69
2022-09-20T10:52:08.541Z,34.00
2022-09-20T10:54:52.671Z,34.78
2022-09-20T10:57:49.981Z,34.47
2022-09-20T11:00:24.830Z,33.95
2022-09-20T11:03:12.820Z,33.72
2022-09-20T11:05:53.745Z,34.20
2022-09-20T11:08:27.504Z,34.51
2022-09-20T11:11:03.013Z,34.12
2022-09-20T11:13:38.648Z,34.47
2022-09-20T11:16:12.805Z,35.27
2022-09-20T11:18:48.052Z,33.91
2022-09-20T11:21:24.406Z,35.23
2022-09-20T11:23:58.648Z,34.13
2022-09-20T11:26:34.080Z,34.47
2022-09-20T11:29:09.241Z,35.14
2022-09-20T11:31:42.307Z,34.56
2022-09-20T11:34:18.806Z,34.55
2022-09-20T11:36:54.020Z,35.20
2022-09-20T11:39:29.241Z,34.92
2022-09-20T11:42:02.204Z,32.65
2022-09-20T11:44:31.130Z,32.38
2022-09-20T11:47:03.999Z,33.59
2022-09-20T11:49:44.297Z,33.06
2022-09-20T11:52:35.479Z,33.26
2022-09-20T11:55:28.160Z,33.16
2022-09-20T11:58:09.321Z,33.98
2022-09-20T12:00:41.458Z,34.04
2022-09-20T12:03:23.428Z,34.17
2022-09-20T12:05:58.254Z,34.12
2022-09-20T12:08:30.736Z,34.93
2022-09-20T12:11:01.877Z,33.96
2022-09-20T12:13:53.657Z,32.66
2022-09-20T12:16:40.487Z,33.83
2022-09-20T12:19:11.695Z,34.05
2022-09-20T12:22:27.055Z,33.21
2022-09-20T12:25:28.560Z,33.19
2022-09-20T12:27:58.391Z,33.70
2022-09-20T12:30:30.259Z,33.27
2022-09-20T12:33:01.151Z,33.55
2022-09-20T12:36:15.807Z,32.88
2022-09-20T12:38:58.330Z,33.02
2022-09-20T12:41:28.946Z,32.66
2022-09-20T12:44:03.895Z,32.68
2022-09-20T12:46:42.284Z,33.06
2022-09-20T12:49:49.756Z,32.91
2022-09-20T12:52:57.235Z,31.99
2022-09-20T12:55:38.587Z,32.77
2022-09-20T12:58:18.645Z,32.26
2022-09-20T13:00:49.744Z,32.51
2022-09-20T13:03:29.658Z,33.20
2022-09-20T13:06:24.298Z,33.13
2022-09-20T13:08:59.266Z,33.92
2022-09-20T13:11:35.430Z,32.54
2022-09-20T13:14:08.246Z,32.33
2022-09-20T13:16:51.578Z,32.99
2022-09-20T13:19:26.026Z,32.80
2022-09-20T13:21:59.534Z,32.76
2022-09-20T13:24:31.555Z,32.91
2022-09-20T13:27:10.698Z,33.02
2022-09-20T13:29:41.201Z,33.54
2022-09-20T13:32:19.590Z,32.83
2022-09-20T13:35:07.593Z,33.82
2022-09-20T13:37:36.982Z,33.04
2022-09-20T13:40:06.897Z,33.24
2022-09-20T13:42:36.748Z,32.97
2022-09-20T13:45:13.969Z,33.02
2022-09-20T13:47:44.634Z,33.11
2022-09-20T13:50:22.095Z,33.25
2022-09-20T13:52:52.786Z,33.41
2022-09-20T13:55:25.111Z,33.21
2022-09-20T13:57:54.492Z,33.77
2022-09-20T14:00:22.852Z,33.46
2022-09-20T14:02:51.388Z,33.28
2022-09-20T14:05:21.953Z,32.52
2022-09-20T14:07:51.260Z,32.42
2022-09-20T14:10:35.035Z,32.66
2022-09-20T14:13:07.042Z,32.65
2022-09-20T14:15:38.892Z,32.64
2022-09-20T14:18:10.831Z,32.70
2022-09-20T14:20:43.543Z,33.04
2022-09-20T14:23:23.236Z,32.39
2022-09-20T14:26:27.014Z,32.32
2022-09-20T14:28:56.026Z,31.96
2022-09-20T14:31:27.054Z,32.34
2022-09-20T14:33:57.897Z,33.26
2022-09-20T14:36:28.958Z,33.04
2022-09-20T14:39:00.390Z,33.23
2022-09-20T14:41:34.496Z,33.80
2022-09-20T14:44:03.811Z,34.09
2022-09-20T14:46:35.585Z,34.04
2022-09-20T14:49:23.188Z,33.25
2022-09-20T14:51:53.262Z,33.38
2022-09-20T14:54:28.033Z,33.47
2022-09-20T14:56:57.673Z,33.58
2022-09-20T14:59:27.998Z,33.75
2022-09-20T15:02:00.368Z,34.01
2022-09-20T15:04:29.399Z,33.91
2022-09-20T15:07:02.676Z,34.06
2022-09-20T15:09:31.217Z,34.47
2022-09-20T15:12:07.207Z,34.75
2022-09-20T15:14:37.803Z,34.30
2022-09-20T15:17:06.682Z,34.36
2022-09-20T15:19:34.975Z,34.28
2022-09-20T15:22:04.661Z,34.19
2022-09-20T15:24:33.758Z,34.45
2022-09-20T15:27:01.886Z,34.57
2022-09-20T15:29:30.033Z,34.16
2022-09-20T15:31:58.353Z,34.12
2022-09-20T15:34:26.492Z,33.41
2022-09-20T15:36:55.665Z,33.46
2022-09-20T15:39:25.571Z,33.75
2022-09-20T15:41:54.410Z,33.73
2022-09-20T15:44:22.549Z,34.10
2022-09-20T15:46:51.672Z,34.46
2022-09-20T15:49:20.876Z,34.91
2022-09-20T15:51:49.220Z,35.64
2022-09-20T15:54:18.056Z,35.77
2022-09-20T15:56:47.636Z,35.89
2022-09-20T15:59:16.491Z,36.44
2022-09-20T16:01:48.176Z,36.45
2022-09-20T16:04:18.758Z,36.82
2022-09-20T16:06:49.621Z,36.68
2022-09-20T16:09:18.353Z,36.84
2022-09-20T16:11:48.473Z,37.59
2022-09-20T16:14:16.616Z,37.94
2022-09-20T16:16:44.762Z,38.18
2022-09-20T16:19:18.026Z,38.35
2022-09-20T16:21:53.736Z,38.64
2022-09-20T16:24:26.130Z,39.07
2022-09-20T16:26:55.856Z,39.36
2022-09-20T16:29:25.742Z,39.79
2022-09-20T16:31:55.344Z,40.46
2022-09-20T16:34:29.771Z,40.57
2022-09-20T16:36:59.850Z,40.29
2022-09-20T16:39:29.531Z,40.99
2022-09-20T16:42:05.065Z,41.36
2022-09-20T16:44:34.517Z,42.04
2022-09-20T16:47:02.672Z,42.38
2022-09-20T16:49:30.966Z,42.47
2022-09-20T16:51:59.034Z,42.92
2022-09-20T16:54:31.632Z,43.50
2022-09-20T16:57:01.937Z,43.52
2022-09-20T16:59:30.273Z,43.81
2022-09-20T17:01:58.500Z,44.15
2022-09-20T17:04:26.683Z,43.89
2022-09-20T17:06:54.806Z,44.38
2022-09-20T17:09:23.014Z,44.35
2022-09-20T17:11:52.100Z,44.15
2022-09-20T17:14:22.260Z,44.23
2022-09-20T17:16:51.074Z,44.36
2022-09-20T17:19:22.887Z,44.13
2022-09-20T17:21:51.813Z,44.61
2022-09-20T17:24:21.370Z,44.68
2022-09-20T17:26:50.889Z,45.37
2022-09-20T17:29:21.662Z,45.40
2022-09-20T17:31:55.187Z,45.28
2022-09-20T17:34:25.456Z,45.10
2022-09-20T17:36:54.230Z,45.34
2022-09-20T17:39:22.486Z,45.76
2022-09-20T17:41:51.030Z,46.00
2022-09-20T17:44:19.150Z,46.02
2022-09-20T17:46:50.728Z,46.48
2022-09-20T17:49:20.798Z,45.93
2022-09-20T17:51:50.295Z,45.99
2022-09-20T17:54:19.272Z,45.78
2022-09-20T17:56:48.831Z,45.70
2022-09-20T17:59:18.002Z,46.01
2022-09-20T18:01:49.424Z,46.24
2022-09-20T18:04:17.762Z,46.40
2022-09-20T18:06:48.265Z,46.70
2022-09-20T18:09:18.028Z,46.76
2022-09-20T18:11:49.615Z,47.27
2022-09-20T18:14:19.366Z,46.86
2022-09-20T18:16:49.106Z,46.84
2022-09-20T18:19:17.246Z,47.39
2022-09-20T18:21:45.565Z,47.65
2022-09-20T18:24:13.927Z,47.29
2022-09-20T18:26:42.624Z,47.58
2022-09-20T18:29:12.385Z,47.80
2022-09-20T18:31:43.404Z,48.24
2022-09-20T18:34:15.688Z,49.50
2022-09-20T18:36:43.893Z,49.03
2022-09-20T18:39:13.207Z,49.16
2022-09-20T18:41:44.132Z,49.02
2022-09-20T18:44:13.843Z,49.81
2022-09-20T18:46:42.153Z,49.59
2022-09-20T18:49:15.172Z,49.66
2022-09-20T18:51:43.845Z,50.02
2022-09-20T18:54:13.420Z,50.25
2022-09-20T18:56:43.106Z,50.25
2022-09-20T18:59:16.385Z,50.26
2022-09-20T19:02:07.971Z,50.61
2022-09-20T19:04:50.518Z,50.68
2022-09-20T19:07:26.876Z,50.85
2022-09-20T19:10:04.791Z,51.49
2022-09-20T19:12:39.746Z,51.76
2022-09-20T19:15:23.806Z,51.96
2022-09-20T19:18:18.401Z,52.65
2022-09-20T19:20:59.361Z,52.99
2022-09-20T19:23:46.682Z,53.07
2022-09-20T19:26:22.230Z,53.95
2022-09-20T19:28:51.824Z,53.97
2022-09-20T19:31:25.781Z,54.99
2022-09-20T19:33:56.080Z,54.83
2022-09-20T19:36:32.848Z,54.96
2022-09-20T19:39:08.036Z,55.39
2022-09-20T19:41:47.610Z,55.13
2022-09-20T19:44:29.780Z,54.74
2022-09-20T19:47:22.629Z,55.05
2022-09-20T19:49:55.514Z,55.41
2022-09-20T19:52:25.929Z,55.62
2022-09-20T19:54:54.782Z,56.59
2022-09-20T19:57:25.019Z,57.36
2022-09-20T19:59:53.841Z,58.16
2022-09-20T20:02:22.115Z,58.93
2022-09-20T20:04:52.870Z,58.72
2022-09-20T20:07:30.923Z,57.49
2022-09-20T20:10:11.039Z,57.11
2022-09-20T20:12:58.103Z,56.30
2022-09-20T20:15:40.486Z,55.99
2022-09-20T20:18:22.050Z,55.80
2022-09-20T20:20:52.571Z,56.19
2022-09-20T20:23:49.935Z,56.29
2022-09-20T20:26:21.870Z,56.41
2022-09-20T20:28:50.912Z,56.28
2022-09-20T20:31:19.749Z,56.68
2022-09-20T20:33:48.053Z,56.87
2022-09-20T20:36:18.261Z,56.90
2022-09-20T20:38:50.031Z,56.65
2022-09-20T20:41:21.395Z,56.56
2022-09-20T20:43:53.644Z,56.73
2022-09-20T20:46:21.778Z,57.03
2022-09-20T20:48:49.912Z,57.00
2022-09-20T20:51:19.549Z,56.72
2022-09-20T20:53:50.865Z,56.34
2022-09-20T20:56:21.311Z,56.37
2022-09-20T20:58:50.374Z,56.16
2022-09-20T21:01:20.475Z,55.91
2022-09-20T21:03:50.578Z,56.39
2022-09-20T21:06:19.487Z,56.53
2022-09-20T21:08:50.118Z,56.87
2022-09-20T21:11:20.472Z,56.57
2022-09-20T21:13:49.062Z,56.90
2022-09-20T21:16:19.076Z,57.19
2022-09-20T21:18:48.941Z,57.38
2022-09-20T21:21:19.167Z,57.67
2022-09-20T21:23:50.848Z,58.14
2022-09-20T21:26:20.057Z,58.18
2022-09-20T21:28:52.147Z,58.52
2022-09-20T21:31:21.600Z,58.73
2022-09-20T21:33:49.795Z,59.03
2022-09-20T21:36:19.248Z,58.58
2022-09-20T21:38:48.736Z,58.61
2022-09-20T21:41:18.354Z,58.40
2022-09-20T21:43:49.024Z,58.39
2022-09-20T21:46:19.045Z,57.97
2022-09-20T21:48:48.146Z,58.15
2022-09-20T21:51:18.291Z,57.86
2022-09-20T21:53:48.622Z,57.79
2022-09-20T21:56:18.650Z,57.75
2022-09-20T21:58:47.128Z,57.82
2022-09-20T22:01:17.030Z,58.49
2022-09-20T22:03:47.727Z,58.63
2022-09-20T22:06:17.439Z,58.80
2022-09-20T22:08:50.183Z,58.91
2022-09-20T22:11:19.628Z,59.07
2022-09-20T22:13:49.239Z,59.12
2022-09-20T22:16:19.776Z,58.69
2022-09-20T22:18:48.474Z,59.04
2022-09-20T22:21:19.761Z,58.56
2022-09-20T22:23:52.918Z,58.06
2022-09-20T22:26:22.709Z,57.82
2022-09-20T22:28:51.036Z,57.46
2022-09-20T22:31:21.626Z,57.24
2022-09-20T22:33:52.869Z,57.18
2022-09-20T22:36:22.882Z,57.23
2022-09-20T22:38:53.925Z,57.25
2022-09-20T22:41:22.477Z,57.13
2022-09-20T22:43:51.408Z,57.07
2022-09-20T22:46:21.339Z,57.14
2022-09-20T22:48:50.518Z,56.87
2022-09-20T22:51:21.696Z,56.61
2022-09-20T22:53:51.163Z,56.24
2022-09-20T22:56:22.295Z,55.94
2022-09-20T22:58:53.106Z,55.87
2022-09-20T23:01:23.695Z,55.44
2022-09-20T23:03:56.415Z,55.40
2022-09-20T23:06:26.789Z,55.13
2022-09-20T23:08:57.337Z,55.25
2022-09-20T23:11:27.727Z,54.95
2022-09-20T23:13:57.339Z,54.80
2022-09-20T23:16:28.293Z,54.63
2022-09-20T23:18:57.496Z,54.48
2022-09-20T23:21:26.073Z,54.41
2022-09-20T23:23:55.481Z,54.38
2022-09-20T23:26:25.439Z,54.56
2022-09-20T23:28:57.599Z,54.80
2022-09-20T23:31:26.335Z,55.50
2022-09-20T23:33:55.845Z,56.18
2022-09-20T23:36:25.167Z,56.58
2022-09-20T23:38:53.757Z,56.84
2022-09-20T23:41:23.910Z,56.95
2022-09-20T23:43:52.469Z,57.14
2022-09-20T23:46:24.182Z,57.29
2022-09-20T23:48:52.661Z,57.38
2022-09-20T23:51:22.988Z,57.31
2022-09-20T23:53:51.540Z,57.40
2022-09-20T23:56:19.840Z,57.35
2022-09-20T23:58:48.734Z,57.47
